Main page
METAR-TAF:

METAR-TAF

Airports :

Faro Airport

Faro, Portugal

latitude: 37-01N, longitude: 007-58W, elevation: 7 m

Current weather observation

The report was made 36 minutes ago, at 22:00 UTC
Wind 4 kt from the West
Temperature 24°C
Humidity 74%
Pressure 1018 hPa
Visibility 10 km or more
no clouds below 1500 m and no cumulonimbus

METAR: LPFR 212200Z 27004KT CAVOK 24/19 Q1018

Time: 23:36 (22:36 UTC)

Forecast

The report was made 5 hours and 36 minutes ago, at 17:00 UTC
Forecast valid from 21 at 18 UTC to 22 at 18 UTC
Wind 10 kt from the West/Southwest
Visibility 10 km or more
no clouds below 1500 m and no cumulonimbus
Becoming
from 21 at 20 UTC to 21 at 22 UTC
Wind 5 kt from the Northwest
Becoming
from 22 at 00 UTC to 22 at 03 UTC
Wind 7 kt from the North/Northeast
Becoming
from 22 at 09 UTC to 22 at 12 UTC
Wind 10 kt from the Southeast

TAF: LPFR 211700Z 2118/2218 25010KT CAVOK BECMG 2120/2122 32005KT BECMG 2200/2203 03007KT BECMG 2209/2212 14010KT

Weather observations and forecasts of more than 4000 airports (METAR and TAF reports).

The available stations are represented by yellow and red dots on the map.

Hover mouse over dot to see the name of the station.

Then click to see weather observations and forecasts.

To change the map : click on the green buttons with a black cross to zoom in, on the green button with a dash to zoom out, or on the green arrows for adjacent maps.


METAR-TAF: